createdAt,value
2022-09-02T00:00:21.794Z,73.00
2022-09-02T00:02:51.450Z,73.10
2022-09-02T00:05:20.483Z,73.10
2022-09-02T00:07:47.366Z,73.90
2022-09-02T00:10:14.212Z,74.60
2022-09-02T00:12:41.191Z,74.30
2022-09-02T00:15:08.560Z,74.80
2022-09-02T00:17:35.432Z,75.50
2022-09-02T00:20:02.673Z,75.20
2022-09-02T00:22:29.547Z,75.50
2022-09-02T00:39:54.748Z,76.60
2022-09-02T00:42:22.245Z,76.40
2022-09-02T00:44:49.458Z,77.50
2022-09-02T00:52:19.502Z,77.70
2022-09-02T00:54:54.012Z,78.30
2022-09-02T00:57:23.842Z,79.70
2022-09-02T01:00:05.539Z,79.00
2022-09-02T01:02:33.069Z,79.00
2022-09-02T01:05:01.236Z,78.00
2022-09-02T01:07:33.996Z,78.00
2022-09-02T01:10:03.193Z,79.50
2022-09-02T01:12:32.014Z,79.90
2022-09-02T01:14:59.305Z,79.50
2022-09-02T01:17:26.778Z,79.60
2022-09-02T01:19:59.285Z,80.10
2022-09-02T01:22:29.375Z,79.90
2022-09-02T01:25:01.009Z,80.50
2022-09-02T01:27:28.235Z,79.90
2022-09-02T01:29:57.702Z,80.70
2022-09-02T01:32:25.153Z,81.30
2022-09-02T01:34:52.249Z,80.90
2022-09-02T01:37:20.337Z,80.50
2022-09-02T01:39:47.766Z,81.50
2022-09-02T01:42:15.287Z,81.80
2022-09-02T01:44:45.171Z,82.10
2022-09-02T01:51:32.111Z,82.70
2022-09-02T01:53:59.072Z,82.70
2022-09-02T01:56:26.108Z,83.40
2022-09-02T01:58:53.097Z,84.30
2022-09-02T02:01:20.302Z,84.50
2022-09-02T02:03:47.688Z,84.80
2022-09-02T02:06:17.597Z,85.00
2022-09-02T02:08:44.953Z,85.80
2022-09-02T02:11:12.292Z,85.90
2022-09-02T02:13:39.150Z,86.80
2022-09-02T02:16:06.778Z,86.80
2022-09-02T02:18:33.750Z,87.80
2022-09-02T02:21:00.539Z,86.80
2022-09-02T02:23:27.533Z,87.00
2022-09-02T02:25:54.612Z,86.70
2022-09-02T02:28:21.622Z,86.90
2022-09-02T02:30:48.868Z,87.50
2022-09-02T02:33:15.913Z,87.70
2022-09-02T02:35:43.510Z,87.70
2022-09-02T02:38:10.347Z,87.00
2022-09-02T02:40:41.304Z,87.70
2022-09-02T02:43:08.418Z,87.30
2022-09-02T02:45:35.453Z,87.50
2022-09-02T02:52:46.663Z,88.10
2022-09-02T02:55:14.043Z,88.50
2022-09-02T02:57:42.941Z,89.20
2022-09-02T03:00:15.247Z,88.70
2022-09-02T03:02:42.308Z,89.00
2022-09-02T03:05:12.448Z,88.80
2022-09-02T03:07:39.817Z,89.50
2022-09-02T03:10:08.778Z,88.30
2022-09-02T03:12:37.327Z,89.00
2022-09-02T03:15:05.211Z,89.80
2022-09-02T03:17:32.414Z,90.00
2022-09-02T03:19:59.544Z,89.80
2022-09-02T03:22:27.561Z,89.90
2022-09-02T03:24:54.816Z,90.30
2022-09-02T03:27:22.393Z,90.20
2022-09-02T03:29:49.408Z,90.50
2022-09-02T03:32:16.367Z,90.40
2022-09-02T03:34:43.560Z,90.40
2022-09-02T03:37:10.540Z,90.50
2022-09-02T03:39:40.957Z,90.50
2022-09-02T03:42:08.230Z,90.40
2022-09-02T03:44:47.391Z,90.50
2022-09-02T03:51:28.141Z,91.00
2022-09-02T03:53:55.293Z,91.20
2022-09-02T03:56:24.567Z,90.90
2022-09-02T03:58:52.701Z,91.20
2022-09-02T04:01:22.856Z,91.20
2022-09-02T04:03:50.379Z,91.50
2022-09-02T04:06:20.069Z,91.50
2022-09-02T04:08:48.157Z,91.40
2022-09-02T04:11:18.601Z,91.40
2022-09-02T04:13:46.591Z,91.60
2022-09-02T04:16:16.594Z,91.50
2022-09-02T04:18:43.664Z,91.50
2022-09-02T04:21:11.551Z,91.60
2022-09-02T04:23:38.838Z,91.90
2022-09-02T04:26:11.810Z,92.00
2022-09-02T04:28:39.183Z,91.50
2022-09-02T04:31:08.344Z,91.50
2022-09-02T04:33:36.698Z,91.70
2022-09-02T04:36:14.735Z,92.00
2022-09-02T04:38:42.430Z,91.90
2022-09-02T04:41:13.159Z,92.30
2022-09-02T04:43:41.127Z,92.10
2022-09-02T04:46:11.616Z,92.10
2022-09-02T04:53:35.697Z,92.30
2022-09-02T04:56:07.808Z,92.10
2022-09-02T04:58:36.409Z,92.10
2022-09-02T05:01:12.958Z,92.60
2022-09-02T05:03:40.075Z,92.50
2022-09-02T05:06:10.077Z,92.30
2022-09-02T05:08:37.751Z,92.20
2022-09-02T05:11:13.620Z,92.70
2022-09-02T05:13:41.194Z,92.60
2022-09-02T05:16:08.318Z,92.50
2022-09-02T05:18:35.592Z,92.70
2022-09-02T05:21:06.670Z,92.80
2022-09-02T05:23:34.814Z,92.90
2022-09-02T05:26:09.023Z,92.60
2022-09-02T05:28:36.184Z,92.80
2022-09-02T05:31:08.344Z,92.80
2022-09-02T05:33:40.799Z,92.70
2022-09-02T05:36:14.736Z,92.80
2022-09-02T05:38:42.376Z,92.80
2022-09-02T05:41:15.977Z,92.90
2022-09-02T05:43:44.774Z,93.10
2022-09-02T05:46:17.618Z,92.90
2022-09-02T05:53:47.689Z,93.00
2022-09-02T05:56:14.842Z,93.50
2022-09-02T05:58:41.741Z,93.10
2022-09-02T06:01:13.990Z,93.10
2022-09-02T06:03:41.160Z,93.10
2022-09-02T06:06:09.973Z,92.80
2022-09-02T06:08:37.156Z,92.70
2022-09-02T06:11:05.029Z,93.10
2022-09-02T06:13:37.248Z,93.10
2022-09-02T06:16:05.588Z,93.00
2022-09-02T06:18:32.915Z,93.40
2022-09-02T06:20:59.957Z,92.70
2022-09-02T06:23:27.313Z,92.20
2022-09-02T06:25:54.317Z,92.10
2022-09-02T06:28:21.255Z,91.50
2022-09-02T06:30:49.040Z,91.30
2022-09-02T06:33:16.077Z,91.00
2022-09-02T06:35:45.817Z,90.40
2022-09-02T06:38:14.389Z,89.90
2022-09-02T06:40:49.724Z,88.90
2022-09-02T06:43:17.325Z,88.20
2022-09-02T06:45:44.960Z,88.50
2022-09-02T06:57:08.805Z,86.20
2022-09-02T06:59:36.320Z,86.10
2022-09-02T07:02:03.959Z,85.90
2022-09-02T07:04:52.089Z,84.80
2022-09-02T07:07:21.237Z,85.50
2022-09-02T07:09:48.173Z,84.60
2022-09-02T07:12:16.964Z,84.70
2022-09-02T07:14:45.068Z,85.30
2022-09-02T07:17:17.737Z,84.20
2022-09-02T07:19:45.256Z,84.30
2022-09-02T07:22:12.057Z,84.00
2022-09-02T07:24:39.099Z,83.30
2022-09-02T07:27:06.689Z,83.60
2022-09-02T07:29:34.769Z,83.40
2022-09-02T07:32:02.320Z,84.60
2022-09-02T07:34:29.298Z,83.90
2022-09-02T07:37:00.510Z,84.70
2022-09-02T07:39:30.415Z,84.40
2022-09-02T07:41:57.332Z,84.60
2022-09-02T07:44:24.884Z,84.70
2022-09-02T07:46:52.621Z,83.90
2022-09-02T07:54:16.476Z,83.30
2022-09-02T07:56:43.444Z,82.30
2022-09-02T07:59:10.499Z,82.00
2022-09-02T08:01:38.147Z,82.50
2022-09-02T08:04:06.485Z,82.60
2022-09-02T08:06:35.107Z,82.40
2022-09-02T08:09:05.522Z,81.90
2022-09-02T08:11:35.442Z,82.00
2022-09-02T08:14:02.589Z,80.80
2022-09-02T08:16:29.626Z,81.80
2022-09-02T08:18:56.465Z,81.40
2022-09-02T08:21:25.701Z,81.20
2022-09-02T08:23:52.717Z,81.00
2022-09-02T08:26:21.396Z,80.50
2022-09-02T08:28:48.414Z,79.70
2022-09-02T08:31:15.390Z,79.80
2022-09-02T08:33:42.656Z,80.10
2022-09-02T08:36:11.935Z,79.60
2022-09-02T08:38:38.907Z,78.90
2022-09-02T08:41:17.427Z,78.50
2022-09-02T08:43:45.271Z,77.80
2022-09-02T08:46:16.566Z,76.60
2022-09-02T08:48:55.606Z,76.40
2022-09-02T08:56:19.432Z,75.30
2022-09-02T08:58:52.919Z,70.50
2022-09-02T09:01:32.667Z,68.40
2022-09-02T09:04:20.729Z,66.50
2022-09-02T09:06:50.397Z,64.60
2022-09-02T09:09:55.619Z,64.00
2022-09-02T09:12:40.914Z,63.20
2022-09-02T09:15:33.723Z,61.90
2022-09-02T09:18:04.302Z,61.10
2022-09-02T09:20:38.782Z,60.60
2022-09-02T09:23:27.445Z,60.60
2022-09-02T09:25:59.802Z,59.70
2022-09-02T09:28:26.622Z,58.80
2022-09-02T09:30:53.411Z,58.40
2022-09-02T09:33:22.970Z,57.80
2022-09-02T09:35:54.808Z,57.50
2022-09-02T09:38:34.841Z,57.30
2022-09-02T09:41:11.026Z,57.40
2022-09-02T09:43:38.021Z,56.10
2022-09-02T09:46:32.230Z,55.40
2022-09-02T09:48:59.141Z,55.40
2022-09-02T09:52:22.716Z,55.00
2022-09-02T09:55:15.689Z,54.90
2022-09-02T09:57:50.997Z,54.80
2022-09-02T10:00:29.528Z,53.20
2022-09-02T10:02:59.988Z,52.20
2022-09-02T10:05:26.759Z,51.40
2022-09-02T10:07:59.602Z,53.10
2022-09-02T10:10:29.116Z,52.70
2022-09-02T10:13:02.184Z,51.60
2022-09-02T10:15:41.612Z,50.40
2022-09-02T10:18:23.569Z,49.90
2022-09-02T10:21:16.879Z,51.50
2022-09-02T10:23:57.850Z,51.40
2022-09-02T10:26:39.059Z,50.00
2022-09-02T10:29:29.139Z,50.50
2022-09-02T10:32:14.301Z,50.80
2022-09-02T10:35:01.408Z,49.90
2022-09-02T10:38:00.147Z,50.00
2022-09-02T10:40:37.722Z,49.70
2022-09-02T10:43:24.419Z,49.90
2022-09-02T10:46:00.771Z,50.30
2022-09-02T10:48:36.646Z,49.90
2022-09-02T10:51:41.344Z,50.50
2022-09-02T10:54:46.033Z,49.30
2022-09-02T10:57:26.429Z,50.20
2022-09-02T11:00:08.644Z,50.40
2022-09-02T11:02:45.140Z,50.20
2022-09-02T11:05:36.966Z,49.90
2022-09-02T11:08:46.898Z,49.10
2022-09-02T11:11:37.815Z,49.80
2022-09-02T11:14:26.760Z,49.50
2022-09-02T11:17:02.685Z,50.90
2022-09-02T11:19:39.227Z,49.90
2022-09-02T11:22:33.614Z,50.20
2022-09-02T11:25:14.185Z,49.70
2022-09-02T11:27:59.263Z,49.40
2022-09-02T11:30:52.801Z,49.90
2022-09-02T11:33:40.814Z,50.30
2022-09-02T11:36:08.076Z,50.00
2022-09-02T11:38:43.104Z,49.70
2022-09-02T11:44:19.708Z,49.80
2022-09-02T11:47:09.012Z,49.20
2022-09-02T11:49:56.321Z,48.60
2022-09-02T11:53:20.686Z,49.10
2022-09-02T11:55:59.520Z,48.20
2022-09-02T11:58:56.409Z,48.80
2022-09-02T12:01:50.955Z,48.60
2022-09-02T12:07:10.245Z,48.60
2022-09-02T12:09:51.104Z,48.40
2022-09-02T12:12:39.034Z,47.30
2022-09-02T12:15:06.723Z,47.30
2022-09-02T12:17:38.080Z,47.60
2022-09-02T12:20:08.383Z,48.60
2022-09-02T12:22:39.918Z,48.70
2022-09-02T12:25:27.453Z,48.70
2022-09-02T12:28:27.184Z,48.40
2022-09-02T12:30:57.724Z,48.60
2022-09-02T12:33:35.628Z,48.30
2022-09-02T12:36:05.074Z,47.00
2022-09-02T12:38:40.341Z,48.00
2022-09-02T12:41:08.791Z,47.50
2022-09-02T12:43:47.186Z,47.90
2022-09-02T12:46:43.221Z,47.80
2022-09-02T12:49:43.278Z,47.10
2022-09-02T12:53:06.787Z,46.80
2022-09-02T12:55:35.719Z,47.80
2022-09-02T12:58:17.368Z,46.70
2022-09-02T13:00:47.007Z,46.70
2022-09-02T13:03:42.543Z,47.60
2022-09-02T13:06:18.078Z,46.80
2022-09-02T13:09:06.133Z,46.70
2022-09-02T13:12:07.229Z,46.60
2022-09-02T13:14:42.991Z,46.00
2022-09-02T13:17:37.195Z,45.10
2022-09-02T13:20:36.940Z,46.00
2022-09-02T13:23:35.266Z,46.80
2022-09-02T13:26:45.505Z,46.00
2022-09-02T13:29:45.825Z,44.80
2022-09-02T13:32:20.739Z,45.20
2022-09-02T13:34:49.860Z,44.90
2022-09-02T13:37:39.063Z,45.40
2022-09-02T13:40:33.512Z,46.20
2022-09-02T13:43:15.970Z,45.80
2022-09-02T13:45:43.992Z,44.90
2022-09-02T13:48:22.517Z,45.60
2022-09-02T13:50:52.319Z,44.90
2022-09-02T13:54:23.048Z,44.30
2022-09-02T13:56:50.421Z,44.30
2022-09-02T13:59:32.353Z,43.90
2022-09-02T14:01:59.465Z,44.80
2022-09-02T14:04:27.669Z,44.00
2022-09-02T14:06:54.907Z,45.10
2022-09-02T14:09:27.133Z,44.10
2022-09-02T14:11:54.683Z,44.20
2022-09-02T14:14:25.221Z,44.60
2022-09-02T14:16:52.893Z,44.10
2022-09-02T14:19:22.823Z,43.80
2022-09-02T14:22:00.066Z,44.00
2022-09-02T14:24:37.411Z,45.40
2022-09-02T14:27:14.993Z,44.80
2022-09-02T14:29:45.411Z,44.40
2022-09-02T14:32:14.857Z,44.30
2022-09-02T14:34:44.147Z,43.90
2022-09-02T14:37:29.465Z,44.80
2022-09-02T14:40:02.458Z,44.60
2022-09-02T14:42:29.729Z,44.80
2022-09-02T14:44:59.389Z,44.20
2022-09-02T14:47:28.148Z,44.60
2022-09-02T14:49:56.099Z,43.90
2022-09-02T14:57:20.587Z,44.20
2022-09-02T14:59:48.687Z,44.50
2022-09-02T15:02:27.475Z,44.60
2022-09-02T15:04:55.745Z,43.90
2022-09-02T15:07:23.287Z,44.20
2022-09-02T15:09:52.575Z,44.70
2022-09-02T15:12:24.707Z,44.30
2022-09-02T15:14:52.680Z,44.10
2022-09-02T15:17:20.128Z,44.50
2022-09-02T15:19:47.776Z,43.50
2022-09-02T15:22:16.219Z,43.20
2022-09-02T15:24:43.782Z,43.40
2022-09-02T15:27:14.225Z,44.20
2022-09-02T15:29:44.300Z,43.10
2022-09-02T15:32:11.305Z,43.90
2022-09-02T15:34:38.135Z,43.60
2022-09-02T15:37:06.303Z,43.30
2022-09-02T15:39:34.771Z,42.80
2022-09-02T15:42:02.045Z,43.90
2022-09-02T15:44:29.607Z,43.70
2022-09-02T15:46:56.715Z,42.90
2022-09-02T15:49:24.317Z,43.50
2022-09-02T15:51:54.825Z,43.00
2022-09-02T15:59:19.383Z,42.70
2022-09-02T16:01:48.503Z,43.80
2022-09-02T16:04:15.926Z,43.00
2022-09-02T16:06:45.513Z,43.40
2022-09-02T16:09:14.403Z,43.20
2022-09-02T16:11:43.751Z,42.60
2022-09-02T16:14:11.569Z,43.20
2022-09-02T16:16:39.096Z,44.10
2022-09-02T16:19:09.840Z,43.40
2022-09-02T16:21:39.227Z,43.20
2022-09-02T16:24:08.162Z,43.10
2022-09-02T16:26:38.197Z,43.80
2022-09-02T16:29:07.674Z,42.80
2022-09-02T16:31:38.233Z,43.80
2022-09-02T16:34:07.718Z,43.70
2022-09-02T16:36:38.507Z,43.80
2022-09-02T16:39:06.630Z,43.20
2022-09-02T16:41:36.122Z,43.60
2022-09-02T16:48:53.009Z,44.20
2022-09-02T16:51:19.816Z,42.80
2022-09-02T16:53:46.706Z,43.20
2022-09-02T16:56:15.108Z,43.10
2022-09-02T16:58:41.986Z,42.80
2022-09-02T17:02:05.516Z,43.80
2022-09-02T17:04:32.408Z,44.20
2022-09-02T17:07:29.895Z,44.10
2022-09-02T17:09:56.926Z,44.80
2022-09-02T17:12:23.869Z,45.10
2022-09-02T17:14:50.697Z,45.00
2022-09-02T17:17:17.672Z,45.20
2022-09-02T17:19:44.606Z,45.20
2022-09-02T17:22:11.470Z,45.90
2022-09-02T17:24:41.802Z,50.10
2022-09-02T17:27:09.066Z,46.30
2022-09-02T17:29:51.324Z,45.10
2022-09-02T17:32:19.317Z,46.00
2022-09-02T17:34:46.622Z,47.00
2022-09-02T17:37:13.427Z,46.80
2022-09-02T17:39:40.528Z,46.50
2022-09-02T17:42:07.780Z,46.70
2022-09-02T17:44:39.638Z,46.80
2022-09-02T17:47:15.853Z,47.20
2022-09-02T17:49:44.122Z,47.10
2022-09-02T17:52:13.671Z,47.30
2022-09-02T17:54:41.693Z,47.90
2022-09-02T17:57:28.305Z,47.80
2022-09-02T18:00:07.885Z,48.20
2022-09-02T18:03:13.399Z,48.20
2022-09-02T18:06:02.244Z,48.40
2022-09-02T18:08:34.929Z,47.90
2022-09-02T18:11:05.176Z,48.20
2022-09-02T18:13:41.460Z,48.80
2022-09-02T18:16:29.656Z,48.80
2022-09-02T18:19:02.498Z,48.80
2022-09-02T18:21:52.337Z,49.40
2022-09-02T18:24:42.298Z,49.30
2022-09-02T18:28:05.586Z,49.90
2022-09-02T18:30:42.566Z,49.60
2022-09-02T18:33:20.533Z,50.10
2022-09-02T18:36:13.663Z,49.80
2022-09-02T18:39:02.466Z,49.80
2022-09-02T18:41:56.878Z,50.10
2022-09-02T18:44:53.086Z,50.30
2022-09-02T18:47:24.977Z,50.60
2022-09-02T18:49:56.292Z,50.50
2022-09-02T18:52:29.893Z,51.00
2022-09-02T18:54:59.874Z,51.00
2022-09-02T18:57:36.867Z,50.90
2022-09-02T19:00:12.941Z,50.80
2022-09-02T19:02:53.249Z,51.30
2022-09-02T19:05:23.254Z,51.10
2022-09-02T19:08:19.518Z,51.20
2022-09-02T19:10:46.716Z,51.40
2022-09-02T19:13:13.874Z,51.70
2022-09-02T19:15:40.939Z,51.50
2022-09-02T19:18:08.111Z,51.60
2022-09-02T19:20:35.861Z,51.50
2022-09-02T19:23:06.344Z,51.80
2022-09-02T19:25:34.171Z,52.00
2022-09-02T19:32:57.575Z,51.90
2022-09-02T19:35:27.933Z,52.40
2022-09-02T19:37:55.482Z,52.10
2022-09-02T19:40:33.417Z,52.30
2022-09-02T19:43:03.345Z,51.90
2022-09-02T19:45:31.985Z,52.10
2022-09-02T19:48:08.326Z,52.80
2022-09-02T19:50:42.061Z,52.50
2022-09-02T19:53:25.661Z,52.70
2022-09-02T19:55:52.527Z,52.50
2022-09-02T19:58:19.580Z,52.80
2022-09-02T20:00:48.201Z,53.00
2022-09-02T20:03:15.998Z,52.80
2022-09-02T20:05:43.002Z,52.80
2022-09-02T20:08:10.036Z,52.90
2022-09-02T20:10:38.279Z,53.20
2022-09-02T20:13:06.060Z,53.00
2022-09-02T20:15:37.440Z,53.10
2022-09-02T20:18:15.915Z,53.20
2022-09-02T20:20:51.015Z,53.60
2022-09-02T20:23:19.501Z,53.50
2022-09-02T20:26:13.934Z,53.70
2022-09-02T20:33:37.222Z,53.70
2022-09-02T20:36:31.854Z,54.00
2022-09-02T20:39:06.520Z,54.00
2022-09-02T20:41:53.894Z,54.10
2022-09-02T20:44:29.625Z,53.90
2022-09-02T20:47:25.907Z,54.50
2022-09-02T20:50:26.647Z,54.10
2022-09-02T20:53:08.598Z,54.80
2022-09-02T20:55:56.187Z,54.70
2022-09-02T20:59:18.299Z,55.20
2022-09-02T21:01:47.275Z,54.40
2022-09-02T21:04:26.029Z,54.90
2022-09-02T21:07:12.953Z,55.10
2022-09-02T21:10:06.659Z,55.10
2022-09-02T21:12:43.089Z,55.00
2022-09-02T21:15:12.553Z,55.10
2022-09-02T21:17:48.769Z,55.30
2022-09-02T21:20:33.848Z,55.30
2022-09-02T21:23:05.873Z,55.70
2022-09-02T21:25:56.161Z,55.70
2022-09-02T21:29:19.612Z,55.70
2022-09-02T21:32:13.686Z,56.20
2022-09-02T21:34:48.032Z,55.80
2022-09-02T21:37:17.064Z,56.50
2022-09-02T21:39:49.452Z,56.10
2022-09-02T21:42:34.210Z,56.50
2022-09-02T21:45:16.028Z,56.40
2022-09-02T21:47:57.787Z,57.10
2022-09-02T21:50:39.124Z,56.80
2022-09-02T21:53:19.054Z,56.70
2022-09-02T21:56:10.408Z,57.20
2022-09-02T21:59:03.155Z,57.30
2022-09-02T22:01:44.579Z,57.20
2022-09-02T22:04:21.359Z,57.30
2022-09-02T22:06:58.157Z,57.80
2022-09-02T22:09:30.094Z,57.80
2022-09-02T22:12:11.543Z,58.10
2022-09-02T22:14:44.296Z,58.40
2022-09-02T22:17:12.571Z,57.90
2022-09-02T22:19:41.793Z,58.40
2022-09-02T22:22:24.538Z,58.20
2022-09-02T22:24:52.105Z,58.50
2022-09-02T22:27:43.423Z,58.40
2022-09-02T22:35:07.112Z,58.50
2022-09-02T22:37:52.399Z,58.90
2022-09-02T22:40:22.999Z,59.10
2022-09-02T22:42:57.124Z,59.10
2022-09-02T22:45:59.935Z,59.10
2022-09-02T22:48:54.908Z,59.00
2022-09-02T22:51:57.443Z,59.00
2022-09-02T22:54:26.043Z,59.00
2022-09-02T22:57:12.844Z,59.40
2022-09-02T22:59:42.424Z,59.50
2022-09-02T23:02:20.397Z,60.00
2022-09-02T23:05:38.234Z,60.30
2022-09-02T23:08:10.021Z,60.70
2022-09-02T23:10:47.250Z,60.00
2022-09-02T23:13:42.729Z,60.00
2022-09-02T23:16:15.894Z,60.10
2022-09-02T23:19:01.416Z,60.10
2022-09-02T23:21:54.371Z,60.10
2022-09-02T23:24:30.833Z,60.40
2022-09-02T23:27:22.942Z,60.50
2022-09-02T23:30:49.115Z,60.60
2022-09-02T23:34:00.418Z,60.30
2022-09-02T23:36:52.348Z,60.60
2022-09-02T23:39:44.199Z,60.90
2022-09-02T23:42:12.697Z,61.00
2022-09-02T23:53:07.060Z,60.90
2022-09-02T23:56:20.794Z,60.60
2022-09-02T23:59:09.145Z,60.90
